createdAt,value
2022-07-31T00:01:31.543Z,100768.59
2022-07-31T00:04:00.167Z,100766.88
2022-07-31T00:06:30.972Z,100760.81
2022-07-31T00:08:59.823Z,100758.19
2022-07-31T00:11:28.435Z,100760.00
2022-07-31T00:13:58.722Z,100761.91
2022-07-31T00:16:29.108Z,100757.59
2022-07-31T00:18:58.360Z,100762.97
2022-07-31T00:21:26.977Z,100759.47
2022-07-31T00:23:55.723Z,100756.84
2022-07-31T00:26:24.457Z,100757.91
2022-07-31T00:28:53.111Z,100761.47
2022-07-31T00:31:22.271Z,100761.53
2022-07-31T00:33:52.884Z,100753.66
2022-07-31T00:36:21.871Z,100759.94
2022-07-31T00:38:59.004Z,100753.97
2022-07-31T00:41:37.727Z,100754.00
2022-07-31T00:44:07.040Z,100723.78
2022-07-31T00:46:42.104Z,100755.06
2022-07-31T00:49:13.087Z,100751.47
2022-07-31T00:51:42.560Z,100740.41
2022-07-31T00:54:15.483Z,100749.00
2022-07-31T00:56:51.966Z,100752.56
2022-07-31T00:59:24.581Z,100748.13
2022-07-31T01:01:53.963Z,100729.06
2022-07-31T01:04:23.945Z,100723.78
2022-07-31T01:06:53.026Z,100743.63
2022-07-31T01:09:21.875Z,100727.94
2022-07-31T01:12:01.281Z,100740.19
2022-07-31T01:14:36.800Z,100738.38
2022-07-31T01:17:11.020Z,100741.88
2022-07-31T01:19:45.790Z,100744.59
2022-07-31T01:22:47.107Z,100694.97
2022-07-31T01:25:34.315Z,100736.88
2022-07-31T01:28:55.037Z,100732.56
2022-07-31T01:31:34.807Z,100702.22
2022-07-31T01:34:10.669Z,100741.66
2022-07-31T01:36:49.856Z,100727.94
2022-07-31T01:39:19.792Z,100730.59
2022-07-31T01:41:53.583Z,100736.56
2022-07-31T01:44:28.246Z,100717.59
2022-07-31T01:47:00.044Z,100690.50
2022-07-31T01:49:32.237Z,100740.31
2022-07-31T01:52:05.153Z,100733.34
2022-07-31T01:54:37.773Z,100693.41
2022-07-31T01:57:10.896Z,100738.59
2022-07-31T01:59:49.970Z,100699.59
2022-07-31T02:02:46.096Z,100736.00
2022-07-31T02:05:18.788Z,100741.38
2022-07-31T02:07:50.384Z,100721.25
2022-07-31T02:10:21.814Z,100729.09
2022-07-31T02:12:52.579Z,100685.63
2022-07-31T02:15:25.858Z,100710.06
2022-07-31T02:17:56.946Z,100720.16
2022-07-31T02:20:27.210Z,100673.34
2022-07-31T02:22:58.149Z,100728.16
2022-07-31T02:25:28.740Z,100721.97
2022-07-31T02:28:01.923Z,100716.69
2022-07-31T02:30:39.664Z,100714.09
2022-07-31T02:33:18.998Z,100682.84
2022-07-31T02:35:51.821Z,100663.75
2022-07-31T02:38:23.924Z,100706.41
2022-07-31T02:41:02.639Z,100658.69
2022-07-31T02:43:35.048Z,100714.53
2022-07-31T02:46:18.339Z,100712.84
2022-07-31T02:48:48.118Z,100716.31
2022-07-31T02:51:18.531Z,100714.53
2022-07-31T02:53:48.658Z,100717.94
2022-07-31T02:56:18.628Z,100719.63
2022-07-31T02:58:47.426Z,100718.75
2022-07-31T03:01:28.126Z,100718.03
2022-07-31T03:03:58.168Z,100706.56
2022-07-31T03:06:30.247Z,100711.97
2022-07-31T03:09:06.295Z,100710.31
2022-07-31T03:11:37.311Z,100693.88
2022-07-31T03:14:08.575Z,100706.09
2022-07-31T03:16:40.707Z,100706.16
2022-07-31T03:19:11.332Z,100703.50
2022-07-31T03:21:41.587Z,100673.00
2022-07-31T03:24:11.998Z,100699.13
2022-07-31T03:26:41.098Z,100615.59
2022-07-31T03:29:41.850Z,100676.59
2022-07-31T03:32:00.977Z,100673.09
2022-07-31T03:34:29.779Z,100689.41
2022-07-31T03:36:58.974Z,100691.13
2022-07-31T03:39:28.045Z,100693.75
2022-07-31T03:42:04.740Z,100650.31
2022-07-31T03:44:35.528Z,100654.56
2022-07-31T03:47:05.978Z,100696.31
2022-07-31T03:49:35.645Z,100595.31
2022-07-31T03:52:08.629Z,100698.00
2022-07-31T03:54:40.706Z,100704.13
2022-07-31T03:57:18.112Z,100683.22
2022-07-31T03:59:51.265Z,100720.56
2022-07-31T04:02:22.120Z,100715.88
2022-07-31T04:04:55.756Z,100711.31
2022-07-31T04:07:24.739Z,100710.25
2022-07-31T04:09:53.747Z,100721.56
2022-07-31T04:12:22.816Z,100722.19
2022-07-31T04:14:51.478Z,100718.34
2022-07-31T04:17:22.407Z,100723.38
2022-07-31T04:19:51.301Z,100720.53
2022-07-31T04:22:20.138Z,100719.47
2022-07-31T04:24:50.010Z,100713.06
2022-07-31T04:27:27.397Z,100717.28
2022-07-31T04:29:58.338Z,100720.63
2022-07-31T04:32:28.365Z,100724.03
2022-07-31T04:35:04.182Z,100729.28
2022-07-31T04:37:33.534Z,100736.25
2022-07-31T04:40:02.190Z,100732.53
2022-07-31T04:42:32.846Z,100705.41
2022-07-31T04:45:02.549Z,100726.06
2022-07-31T04:47:32.608Z,100718.84
2022-07-31T04:50:01.582Z,100712.56
2022-07-31T04:52:30.155Z,100721.22
2022-07-31T04:55:05.752Z,100715.69
2022-07-31T04:57:34.633Z,100719.09
2022-07-31T05:00:03.606Z,100705.81
2022-07-31T05:02:35.941Z,100723.09
2022-07-31T05:05:05.040Z,100720.22
2022-07-31T05:07:39.695Z,100719.00
2022-07-31T05:10:34.645Z,100719.66
2022-07-31T05:13:04.063Z,100692.28
2022-07-31T05:15:34.823Z,100721.75
2022-07-31T05:18:07.781Z,100714.28
2022-07-31T05:20:55.043Z,100693.97
2022-07-31T05:23:38.988Z,100721.25
2022-07-31T05:26:17.252Z,100720.53
2022-07-31T05:28:47.036Z,100723.19
2022-07-31T05:31:15.808Z,100724.09
2022-07-31T05:33:47.171Z,100712.91
2022-07-31T05:36:17.017Z,100727.94
2022-07-31T05:38:46.212Z,100738.94
2022-07-31T05:41:34.131Z,100726.91
2022-07-31T05:44:21.488Z,100723.78
2022-07-31T05:49:22.485Z,100723.56
2022-07-31T05:51:55.163Z,100724.31
2022-07-31T05:54:24.179Z,100730.25
2022-07-31T05:57:33.312Z,100730.81
2022-07-31T06:00:04.014Z,100723.31
2022-07-31T06:02:40.769Z,100722.19
2022-07-31T06:05:31.587Z,100698.59
2022-07-31T06:08:01.666Z,100723.34
2022-07-31T06:10:34.780Z,100733.63
2022-07-31T06:13:03.598Z,100739.31
2022-07-31T06:15:36.522Z,100741.81
2022-07-31T06:18:06.528Z,100740.59
2022-07-31T06:20:37.154Z,100693.56
2022-07-31T06:23:22.613Z,100739.06
2022-07-31T06:26:03.511Z,100732.63
2022-07-31T06:28:47.887Z,100718.53
2022-07-31T06:31:20.243Z,100738.00
2022-07-31T06:33:50.822Z,100744.59
2022-07-31T06:36:24.408Z,100724.16
2022-07-31T06:39:00.260Z,100751.16
2022-07-31T06:41:48.096Z,100738.38
2022-07-31T06:44:34.602Z,100740.69
2022-07-31T06:47:23.763Z,100737.56
2022-07-31T06:49:52.968Z,100703.50
2022-07-31T06:52:23.023Z,100692.38
2022-07-31T06:54:51.956Z,100729.47
2022-07-31T06:57:20.790Z,100733.41
2022-07-31T06:59:49.572Z,100724.88
2022-07-31T07:02:18.879Z,100737.53
2022-07-31T07:05:04.622Z,100710.25
2022-07-31T07:07:40.604Z,100733.19
2022-07-31T07:10:10.983Z,100736.34
2022-07-31T07:12:58.054Z,100707.03
2022-07-31T07:15:28.233Z,100725.38
2022-07-31T07:17:57.270Z,100733.00
2022-07-31T07:20:49.456Z,100696.13
2022-07-31T07:23:20.085Z,100733.13
2022-07-31T07:26:12.472Z,100740.47
2022-07-31T07:28:41.756Z,100734.78
2022-07-31T07:31:11.726Z,100738.66
2022-07-31T07:33:42.678Z,100740.75
2022-07-31T07:36:23.452Z,100541.66
2022-07-31T07:39:06.870Z,100735.72
2022-07-31T07:41:38.700Z,100731.69
2022-07-31T07:44:08.446Z,100727.88
2022-07-31T07:46:37.242Z,100726.31
2022-07-31T07:49:08.341Z,100724.81
2022-07-31T07:51:38.583Z,100682.50
2022-07-31T07:54:47.214Z,100709.63
2022-07-31T07:57:22.701Z,100721.09
2022-07-31T08:00:13.204Z,100637.28
2022-07-31T08:03:46.458Z,100689.00
2022-07-31T08:05:41.809Z,100728.63
2022-07-31T08:08:11.850Z,100722.91
2022-07-31T08:11:04.951Z,100698.28
2022-07-31T08:13:56.847Z,100725.47
2022-07-31T08:16:32.676Z,100646.25
2022-07-31T08:19:03.162Z,100709.53
2022-07-31T08:21:34.994Z,100714.66
2022-07-31T08:24:04.037Z,100709.94
2022-07-31T08:26:48.012Z,100637.88
2022-07-31T08:29:17.625Z,100708.09
2022-07-31T08:32:02.670Z,100701.84
2022-07-31T08:34:49.869Z,100698.56
2022-07-31T08:37:59.182Z,100709.78
2022-07-31T08:40:09.473Z,100700.69
2022-07-31T08:42:39.610Z,100701.13
2022-07-31T08:45:09.902Z,100695.53
2022-07-31T08:47:49.230Z,100698.47
2022-07-31T08:50:25.639Z,100698.28
2022-07-31T08:52:57.996Z,100681.44
2022-07-31T08:55:55.977Z,100658.44
2022-07-31T08:58:30.949Z,100692.34
2022-07-31T09:00:59.943Z,100687.16
2022-07-31T09:03:28.798Z,100691.47
2022-07-31T09:06:03.139Z,100696.66
2022-07-31T09:08:34.509Z,100683.78
2022-07-31T09:11:06.360Z,100684.00
2022-07-31T09:13:41.649Z,100656.06
2022-07-31T09:16:31.229Z,100679.06
2022-07-31T09:19:52.988Z,100659.28
2022-07-31T09:21:53.884Z,100649.97
2022-07-31T09:24:31.894Z,100680.41
2022-07-31T09:27:09.001Z,100677.59
2022-07-31T09:29:43.068Z,100634.75
2022-07-31T09:32:25.518Z,100681.75
2022-07-31T09:35:15.582Z,100677.06
2022-07-31T09:37:49.118Z,100685.59
2022-07-31T09:40:39.944Z,100675.59
2022-07-31T09:44:01.108Z,100660.59
2022-07-31T09:46:40.933Z,100662.06
2022-07-31T09:49:10.698Z,100649.78
2022-07-31T09:51:42.386Z,100667.03
2022-07-31T09:54:23.032Z,100651.91
2022-07-31T09:57:13.454Z,100664.78
2022-07-31T09:59:45.401Z,100657.03
2022-07-31T10:02:19.646Z,100620.47
2022-07-31T10:04:51.802Z,100651.78
2022-07-31T10:07:31.519Z,100645.81
2022-07-31T10:10:09.719Z,100642.47
2022-07-31T10:12:50.788Z,100642.25
2022-07-31T10:15:22.001Z,100613.78
2022-07-31T10:18:12.590Z,100627.72
2022-07-31T10:21:00.501Z,100613.44
2022-07-31T10:24:05.148Z,100631.84
2022-07-31T10:26:59.308Z,100642.47
2022-07-31T10:29:24.680Z,100628.28
2022-07-31T10:31:54.014Z,100624.13
2022-07-31T10:34:25.606Z,100608.00
2022-07-31T10:37:14.565Z,100608.50
2022-07-31T10:40:13.368Z,100562.22
2022-07-31T10:42:53.536Z,100631.97
2022-07-31T10:45:23.851Z,100588.78
2022-07-31T10:48:13.177Z,100605.75
2022-07-31T10:51:15.251Z,100618.31
2022-07-31T10:54:05.755Z,100594.44
2022-07-31T10:56:55.362Z,100610.19
2022-07-31T10:59:47.656Z,100595.91
2022-07-31T11:02:37.461Z,100605.88
2022-07-31T11:05:24.603Z,100606.59
2022-07-31T11:08:20.811Z,100612.72
2022-07-31T11:10:57.646Z,100602.16
2022-07-31T11:13:56.761Z,100600.44
2022-07-31T11:16:52.042Z,100596.19
2022-07-31T11:19:46.780Z,100593.13
2022-07-31T11:22:30.882Z,100568.41
2022-07-31T11:25:02.851Z,100586.34
2022-07-31T11:27:32.451Z,100546.75
2022-07-31T11:30:13.190Z,100580.28
2022-07-31T11:32:42.642Z,100575.81
2022-07-31T11:35:11.167Z,100558.53
2022-07-31T11:37:57.049Z,100577.47
2022-07-31T11:40:28.624Z,100582.94
2022-07-31T11:43:32.571Z,100575.06
2022-07-31T11:45:48.856Z,100559.84
2022-07-31T11:48:19.438Z,100571.75
2022-07-31T11:50:50.021Z,100541.56
2022-07-31T11:53:21.256Z,100543.19
2022-07-31T11:55:55.422Z,100570.88
2022-07-31T11:58:27.047Z,100515.84
2022-07-31T12:01:00.735Z,100517.19
2022-07-31T12:03:32.645Z,100551.25
2022-07-31T12:06:01.721Z,100551.72
2022-07-31T12:08:31.124Z,100466.69
2022-07-31T12:11:03.292Z,100555.25
2022-07-31T12:13:32.831Z,100509.94
2022-07-31T12:16:04.416Z,100549.38
2022-07-31T12:18:47.299Z,100549.94
2022-07-31T12:21:17.255Z,100554.69
2022-07-31T12:23:48.699Z,100541.63
2022-07-31T12:26:27.287Z,100468.00
2022-07-31T12:29:01.985Z,100544.84
2022-07-31T12:31:44.038Z,100541.72
2022-07-31T12:34:13.085Z,100536.19
2022-07-31T12:36:41.867Z,100531.31
2022-07-31T12:39:13.568Z,100545.09
2022-07-31T12:41:46.758Z,100535.19
2022-07-31T12:44:15.679Z,100528.50
2022-07-31T12:46:50.666Z,100509.91
2022-07-31T12:49:19.738Z,100532.19
2022-07-31T12:51:48.921Z,100485.84
2022-07-31T12:54:19.305Z,100518.88
2022-07-31T12:56:49.288Z,100515.16
2022-07-31T12:59:18.150Z,100516.09
2022-07-31T13:01:46.809Z,100516.34
2022-07-31T13:04:18.902Z,100509.84
2022-07-31T13:06:52.603Z,100509.09
2022-07-31T13:09:21.974Z,100428.19
2022-07-31T13:11:57.314Z,100503.63
2022-07-31T13:14:26.805Z,100494.50
2022-07-31T13:16:57.513Z,100485.09
2022-07-31T13:19:26.189Z,100425.16
2022-07-31T13:21:56.621Z,100487.13
2022-07-31T13:24:26.597Z,100484.72
2022-07-31T13:26:58.864Z,100484.94
2022-07-31T13:29:27.588Z,100478.28
2022-07-31T13:31:56.335Z,100443.34
2022-07-31T13:34:25.057Z,100430.50
2022-07-31T13:36:53.803Z,100480.91
2022-07-31T13:39:22.478Z,100486.06
2022-07-31T13:41:51.154Z,100352.81
2022-07-31T13:44:21.301Z,100479.00
2022-07-31T13:46:50.205Z,100478.25
2022-07-31T13:49:18.909Z,100461.97
2022-07-31T13:51:47.658Z,100426.84
2022-07-31T13:54:16.599Z,100474.94
2022-07-31T13:56:45.257Z,100470.09
2022-07-31T13:59:14.763Z,100406.81
2022-07-31T14:02:02.740Z,100458.31
2022-07-31T14:04:38.220Z,100477.16
2022-07-31T14:07:09.175Z,100477.25
2022-07-31T14:09:38.265Z,100474.81
2022-07-31T14:12:09.481Z,100450.44
2022-07-31T14:14:40.129Z,100447.47
2022-07-31T14:17:10.076Z,100457.13
2022-07-31T14:19:42.068Z,100466.16
2022-07-31T14:22:14.629Z,100436.78
2022-07-31T14:24:50.746Z,100416.44
2022-07-31T14:27:21.733Z,100461.13
2022-07-31T14:29:50.955Z,100445.59
2022-07-31T14:32:22.460Z,100463.38
2022-07-31T14:34:51.624Z,100475.53
2022-07-31T14:37:21.206Z,100469.97
2022-07-31T14:39:50.011Z,100300.25
2022-07-31T14:42:22.415Z,100435.84
2022-07-31T14:44:54.605Z,100424.16
2022-07-31T14:47:24.530Z,100458.41
2022-07-31T14:50:06.691Z,100463.09
2022-07-31T14:52:39.012Z,100475.00
2022-07-31T14:55:09.503Z,100470.81
2022-07-31T14:57:38.261Z,100471.72
2022-07-31T15:00:13.149Z,100480.84
2022-07-31T15:02:44.914Z,100474.16
2022-07-31T15:06:41.794Z,100472.75
2022-07-31T15:08:03.925Z,100468.63
2022-07-31T15:10:33.359Z,100445.44
2022-07-31T15:13:02.028Z,100463.81
2022-07-31T15:15:33.807Z,100474.69
2022-07-31T15:18:04.214Z,100447.34
2022-07-31T15:20:34.986Z,100400.56
2022-07-31T15:23:04.332Z,100444.63
2022-07-31T15:25:32.976Z,100414.44
2022-07-31T15:28:01.645Z,100460.88
2022-07-31T15:30:30.290Z,100456.44
2022-07-31T15:32:58.905Z,100453.56
2022-07-31T15:35:29.396Z,100367.91
2022-07-31T15:37:59.224Z,100384.38
2022-07-31T15:40:27.888Z,100443.88
2022-07-31T15:42:56.660Z,100448.31
2022-07-31T15:45:25.621Z,100446.88
2022-07-31T15:47:54.253Z,100432.56
2022-07-31T15:50:23.192Z,100391.13
2022-07-31T15:52:53.263Z,100406.97
2022-07-31T15:55:22.140Z,100452.19
2022-07-31T15:57:50.842Z,100412.56
2022-07-31T16:00:20.059Z,100400.41
2022-07-31T16:02:49.079Z,100440.44
2022-07-31T16:05:35.832Z,100281.75
2022-07-31T16:08:31.039Z,100452.03
2022-07-31T16:10:58.439Z,100444.16
2022-07-31T16:13:27.314Z,100415.97
2022-07-31T16:15:56.384Z,100441.69
2022-07-31T16:18:25.278Z,100441.84
2022-07-31T16:20:54.049Z,100450.13
2022-07-31T16:23:25.829Z,100449.09
2022-07-31T16:25:54.740Z,100440.06
2022-07-31T16:28:23.445Z,100438.31
2022-07-31T16:30:52.443Z,100436.34
2022-07-31T16:33:21.172Z,100404.00
2022-07-31T16:35:50.111Z,100423.75
2022-07-31T16:38:18.898Z,100373.53
2022-07-31T16:40:53.282Z,100410.75
2022-07-31T16:43:48.048Z,100410.94
2022-07-31T16:46:11.220Z,100387.53
2022-07-31T16:48:39.913Z,100405.41
2022-07-31T16:51:08.972Z,100407.25
2022-07-31T16:54:13.452Z,100407.56
2022-07-31T16:56:27.698Z,100394.38
2022-07-31T16:58:58.513Z,100401.94
2022-07-31T17:01:58.395Z,100383.59
2022-07-31T17:04:16.537Z,100406.22
2022-07-31T17:06:45.636Z,100406.81
2022-07-31T17:09:15.865Z,100381.50
2022-07-31T17:11:51.289Z,100401.50
2022-07-31T17:14:22.345Z,100359.56
2022-07-31T17:16:53.322Z,100412.66
2022-07-31T17:19:42.544Z,100353.84
2022-07-31T17:22:17.798Z,100406.34
2022-07-31T17:24:50.876Z,100401.34
2022-07-31T17:27:22.671Z,100402.16
2022-07-31T17:29:51.359Z,100397.84
2022-07-31T17:32:20.245Z,100389.53
2022-07-31T17:34:49.668Z,100378.63
2022-07-31T17:37:18.757Z,100394.34
2022-07-31T17:39:47.873Z,100393.50
2022-07-31T17:42:18.137Z,100358.44
2022-07-31T17:44:55.242Z,100347.66
2022-07-31T17:47:25.978Z,100392.59
2022-07-31T17:49:55.154Z,100396.84
2022-07-31T17:52:23.843Z,100387.56
2022-07-31T17:54:53.686Z,100296.44
2022-07-31T17:57:23.727Z,100393.88
2022-07-31T17:59:55.627Z,100392.03
2022-07-31T18:02:24.288Z,100396.72
2022-07-31T18:04:53.265Z,100388.41
2022-07-31T18:07:22.917Z,100382.88
2022-07-31T18:09:53.673Z,100391.41
2022-07-31T18:12:24.460Z,100393.31
2022-07-31T18:14:54.975Z,100398.94
2022-07-31T18:17:23.723Z,100394.53
2022-07-31T18:19:52.406Z,100391.28
2022-07-31T18:22:21.153Z,100391.13
2022-07-31T18:24:50.235Z,100387.47
2022-07-31T18:27:18.930Z,100387.63
2022-07-31T18:29:55.746Z,100370.00
2022-07-31T18:32:26.639Z,100350.28
2022-07-31T18:34:55.291Z,100359.47
2022-07-31T18:37:23.940Z,100363.16
2022-07-31T18:39:52.720Z,100388.81
2022-07-31T18:42:24.172Z,100381.91
2022-07-31T18:44:53.010Z,100388.06
2022-07-31T18:47:21.619Z,100404.50
2022-07-31T18:50:59.378Z,100396.88
2022-07-31T18:52:41.293Z,100401.81
2022-07-31T18:55:10.927Z,100400.47
2022-07-31T18:57:39.731Z,100407.59
2022-07-31T19:00:12.985Z,100405.97
2022-07-31T19:02:42.280Z,100408.06
2022-07-31T19:05:13.717Z,100415.63
2022-07-31T19:07:50.087Z,100408.88
2022-07-31T19:10:29.428Z,100410.31
2022-07-31T19:13:00.898Z,100414.22
2022-07-31T19:15:29.808Z,100423.28
2022-07-31T19:17:58.622Z,100425.38
2022-07-31T19:20:57.398Z,100367.72
2022-07-31T19:23:23.164Z,100420.19
2022-07-31T19:26:02.899Z,100426.66
2022-07-31T19:28:38.299Z,100426.16
2022-07-31T19:31:07.465Z,100423.16
2022-07-31T19:33:37.765Z,100424.25
2022-07-31T19:36:10.750Z,100339.94
2022-07-31T19:38:40.556Z,100412.88
2022-07-31T19:41:09.211Z,100420.25
2022-07-31T19:43:38.206Z,100412.91
2022-07-31T19:46:11.812Z,100410.53
2022-07-31T19:48:42.341Z,100412.38
2022-07-31T19:51:13.988Z,100402.38
2022-07-31T19:53:43.565Z,100415.59
2022-07-31T19:56:20.156Z,100390.91
2022-07-31T19:58:50.143Z,100384.00
2022-07-31T20:01:20.480Z,100407.31
2022-07-31T20:03:49.967Z,100340.16
2022-07-31T20:06:20.048Z,100383.13
2022-07-31T20:08:49.222Z,100405.38
2022-07-31T20:11:18.339Z,100408.84
2022-07-31T20:13:46.979Z,100404.81
2022-07-31T20:16:16.241Z,100403.66
2022-07-31T20:18:47.163Z,100404.53
2022-07-31T20:21:16.148Z,100395.47
2022-07-31T20:23:48.987Z,100393.63
2022-07-31T20:26:17.844Z,100394.38
2022-07-31T20:28:46.919Z,100315.94
2022-07-31T20:31:16.112Z,100371.75
2022-07-31T20:33:56.804Z,100369.38
2022-07-31T20:36:27.350Z,100392.13
2022-07-31T20:38:58.780Z,100361.84
2022-07-31T20:41:28.303Z,100338.53
2022-07-31T20:43:57.216Z,100391.34
2022-07-31T20:46:25.828Z,100389.53
2022-07-31T20:48:54.546Z,100384.13
2022-07-31T20:51:23.746Z,100387.69
2022-07-31T20:53:53.559Z,100378.84
2022-07-31T20:56:24.342Z,100374.44
2022-07-31T20:58:53.001Z,100373.81
2022-07-31T21:01:23.063Z,100378.53
2022-07-31T21:03:52.039Z,100377.88
2022-07-31T21:06:21.088Z,100373.81
2022-07-31T21:08:50.135Z,100379.59
2022-07-31T21:11:20.357Z,100372.78
2022-07-31T21:13:53.797Z,100356.66
2022-07-31T21:16:23.110Z,100365.59
2022-07-31T21:18:51.947Z,100374.06
2022-07-31T21:21:20.824Z,100366.53
2022-07-31T21:23:49.754Z,100363.41
2022-07-31T21:26:18.982Z,100355.00
2022-07-31T21:28:51.347Z,100354.25
2022-07-31T21:31:22.265Z,100352.94
2022-07-31T21:33:51.679Z,100354.78
2022-07-31T21:36:22.087Z,100354.13
2022-07-31T21:38:51.443Z,100332.66
2022-07-31T21:41:21.318Z,100330.94
2022-07-31T21:43:58.725Z,100320.28
2022-07-31T21:46:30.689Z,100352.75
2022-07-31T21:49:00.190Z,100355.22
2022-07-31T21:51:29.681Z,100356.84
2022-07-31T21:53:58.650Z,100351.16
2022-07-31T21:56:28.944Z,100350.81
2022-07-31T21:58:57.812Z,100331.84
2022-07-31T22:01:28.100Z,100350.38
2022-07-31T22:03:56.850Z,100347.47
2022-07-31T22:06:42.951Z,100346.41
2022-07-31T22:09:11.627Z,100350.59
2022-07-31T22:11:40.450Z,100346.19
2022-07-31T22:14:09.045Z,100343.72
2022-07-31T22:16:40.179Z,100304.94
2022-07-31T22:19:09.497Z,100336.63
2022-07-31T22:21:38.769Z,100345.44
2022-07-31T22:24:09.843Z,100348.88
2022-07-31T22:26:39.029Z,100342.53
2022-07-31T22:29:08.309Z,100347.38
2022-07-31T22:31:39.849Z,100348.88
2022-07-31T22:34:37.925Z,100344.59
2022-07-31T22:37:08.551Z,100350.94
2022-07-31T22:39:38.980Z,100339.72
2022-07-31T22:42:09.453Z,100337.69
2022-07-31T22:44:38.776Z,100344.03
2022-07-31T22:47:10.610Z,100340.56
2022-07-31T22:49:39.921Z,100332.84
2022-07-31T22:52:08.779Z,100321.59
2022-07-31T22:54:37.429Z,100341.03
2022-07-31T22:57:06.463Z,100340.34
2022-07-31T22:59:35.234Z,100308.03
2022-07-31T23:02:04.626Z,100327.00
2022-07-31T23:04:35.258Z,100325.25
2022-07-31T23:07:04.424Z,100305.47
2022-07-31T23:09:35.235Z,100310.50
2022-07-31T23:12:06.258Z,100327.84
2022-07-31T23:14:35.248Z,100325.16
2022-07-31T23:17:04.253Z,100308.34
2022-07-31T23:19:34.526Z,100337.00
2022-07-31T23:22:03.563Z,100333.44
2022-07-31T23:24:34.941Z,100287.63
2022-07-31T23:27:08.373Z,100320.97
2022-07-31T23:29:41.683Z,100328.19
2022-07-31T23:32:10.481Z,100322.81
2022-07-31T23:34:41.617Z,100314.16
2022-07-31T23:37:11.669Z,100329.91
2022-07-31T23:39:40.271Z,100333.56
2022-07-31T23:42:26.693Z,100334.19
2022-07-31T23:44:55.385Z,100334.31
2022-07-31T23:47:41.279Z,100331.84
2022-07-31T23:50:17.631Z,100332.19
2022-07-31T23:52:46.774Z,100333.13
2022-07-31T23:55:15.756Z,100331.41
2022-07-31T23:57:44.520Z,100324.41
